createdAt,value
2019-04-25T00:01:50.302Z,11.80
2019-04-25T00:04:21.584Z,11.80
2019-04-25T00:06:52.871Z,11.70
2019-04-25T00:09:25.450Z,11.70
2019-04-25T00:11:55.823Z,11.80
2019-04-25T00:14:26.143Z,11.70
2019-04-25T00:16:56.815Z,11.70
2019-04-25T00:19:27.049Z,11.80
2019-04-25T00:22:15.105Z,11.80
2019-04-25T00:25:17.590Z,11.80
2019-04-25T00:27:46.310Z,11.80
2019-04-25T00:30:17.807Z,11.80
2019-04-25T00:32:48.044Z,11.80
2019-04-25T00:35:18.288Z,11.80
2019-04-25T00:37:48.423Z,11.80
2019-04-25T00:40:18.662Z,11.70
2019-04-25T00:42:48.980Z,11.70
2019-04-25T00:45:19.326Z,11.60
2019-04-25T00:47:50.150Z,11.60
2019-04-25T00:50:21.939Z,11.50
2019-04-25T00:52:53.699Z,11.40
2019-04-25T00:55:28.400Z,11.30
2019-04-25T00:58:01.347Z,11.30
2019-04-25T01:00:43.295Z,11.30
2019-04-25T01:03:18.137Z,11.30
2019-04-25T01:05:48.396Z,11.10
2019-04-25T01:08:18.601Z,11.10
2019-04-25T01:10:49.972Z,11.10
2019-04-25T01:13:22.254Z,11.10
2019-04-25T01:15:54.739Z,11.10
2019-04-25T01:18:25.251Z,11.00
2019-04-25T01:20:55.725Z,10.90
2019-04-25T01:23:25.942Z,10.90
2019-04-25T01:25:59.136Z,10.90
2019-04-25T01:28:30.778Z,10.80
2019-04-25T01:31:05.724Z,10.90
2019-04-25T01:33:35.868Z,10.80
2019-04-25T01:36:20.263Z,10.80
2019-04-25T01:39:05.319Z,10.80
2019-04-25T01:41:54.977Z,10.70
2019-04-25T01:44:29.347Z,10.80
2019-04-25T01:46:59.632Z,10.70
2019-04-25T01:49:30.072Z,10.70
2019-04-25T01:52:00.250Z,10.70
2019-04-25T01:54:31.530Z,10.60
2019-04-25T01:57:01.887Z,10.70
2019-04-25T01:59:33.704Z,10.60
2019-04-25T02:02:06.736Z,10.50
2019-04-25T02:04:37.156Z,10.50
2019-04-25T02:07:08.259Z,10.50
2019-04-25T02:09:38.554Z,10.50
2019-04-25T02:12:23.583Z,10.50
2019-04-25T02:14:54.760Z,10.40
2019-04-25T02:17:25.748Z,10.40
2019-04-25T02:19:56.739Z,10.30
2019-04-25T02:22:27.840Z,10.20
2019-04-25T02:24:58.285Z,10.20
2019-04-25T02:27:28.594Z,10.10
2019-04-25T02:29:58.690Z,10.10
2019-04-25T02:32:28.854Z,10.00
2019-04-25T02:35:02.554Z,10.00
2019-04-25T02:37:30.824Z,10.00
2019-04-25T02:40:02.424Z,10.00
2019-04-25T02:42:34.333Z,9.90
2019-04-25T02:45:24.503Z,9.90
2019-04-25T02:48:24.186Z,9.90
2019-04-25T02:51:09.771Z,9.90
2019-04-25T02:53:44.724Z,9.80
2019-04-25T02:56:30.297Z,9.80
2019-04-25T02:58:47.663Z,9.80
2019-04-25T03:01:22.841Z,9.80
2019-04-25T03:03:54.354Z,9.80
2019-04-25T03:06:25.043Z,9.70
2019-04-25T03:08:56.839Z,9.80
2019-04-25T03:11:27.549Z,9.80
2019-04-25T03:13:58.645Z,9.70
2019-04-25T03:16:29.571Z,9.70
2019-04-25T03:19:15.893Z,9.70
2019-04-25T03:21:47.842Z,9.60
2019-04-25T03:24:18.146Z,9.50
2019-04-25T03:26:48.311Z,9.50
2019-04-25T03:29:18.483Z,9.50
2019-04-25T03:31:48.615Z,9.50
2019-04-25T03:34:20.528Z,9.50
2019-04-25T03:36:50.570Z,9.50
2019-04-25T03:39:20.772Z,9.50
2019-04-25T03:41:50.993Z,9.40
2019-04-25T03:44:21.182Z,9.50
2019-04-25T03:46:53.397Z,9.40
2019-04-25T03:49:23.907Z,9.40
2019-04-25T03:51:54.187Z,9.40
2019-04-25T03:54:24.452Z,9.40
2019-04-25T03:56:56.215Z,9.40
2019-04-25T03:59:26.404Z,9.50
2019-04-25T04:01:56.520Z,9.50
2019-04-25T04:04:26.681Z,9.50
2019-04-25T04:06:56.780Z,9.60
2019-04-25T04:09:27.003Z,9.60
2019-04-25T04:11:57.156Z,9.60
2019-04-25T04:14:27.332Z,9.70
2019-04-25T04:17:19.012Z,9.70
2019-04-25T04:19:55.954Z,9.70
2019-04-25T04:22:36.112Z,9.60
2019-04-25T04:25:07.562Z,9.70
2019-04-25T04:27:38.504Z,9.70
2019-04-25T04:30:10.022Z,9.70
2019-04-25T04:32:40.384Z,9.70
2019-04-25T04:35:10.768Z,9.70
2019-04-25T04:37:44.244Z,9.80
2019-04-25T04:40:16.272Z,9.80
2019-04-25T04:42:46.347Z,9.90
2019-04-25T04:45:18.303Z,9.90
2019-04-25T04:47:48.596Z,10.00
2019-04-25T04:50:18.767Z,10.00
2019-04-25T04:52:52.055Z,10.00
2019-04-25T04:55:23.229Z,10.10
2019-04-25T04:57:54.283Z,10.10
2019-04-25T05:00:26.362Z,10.20
2019-04-25T05:03:08.056Z,10.30
2019-04-25T05:05:51.788Z,10.40
2019-04-25T05:08:24.939Z,10.50
2019-04-25T05:10:57.340Z,10.50
2019-04-25T05:13:31.343Z,10.60
2019-04-25T05:16:03.139Z,10.70
2019-04-25T05:18:39.341Z,10.80
2019-04-25T05:21:06.520Z,10.90
2019-04-25T05:23:36.735Z,10.90
2019-04-25T05:26:07.155Z,10.90
2019-04-25T05:28:38.545Z,10.90
2019-04-25T05:31:20.207Z,10.90
2019-04-25T05:33:50.916Z,11.00
2019-04-25T05:36:21.818Z,11.00
2019-04-25T05:38:53.811Z,11.10
2019-04-25T05:41:39.462Z,11.10
2019-04-25T05:44:09.732Z,11.20
2019-04-25T05:46:40.687Z,11.20
2019-04-25T05:49:10.846Z,11.30
2019-04-25T05:51:41.017Z,11.30
2019-04-25T05:54:11.209Z,11.30
2019-04-25T05:56:41.370Z,11.30
2019-04-25T05:59:13.347Z,11.40
2019-04-25T06:01:43.568Z,11.40
2019-04-25T06:04:14.532Z,11.40
2019-04-25T06:06:44.904Z,11.40
2019-04-25T06:09:33.727Z,11.40
2019-04-25T06:12:24.681Z,11.50
2019-04-25T06:14:55.614Z,11.50
2019-04-25T06:17:37.470Z,11.60
2019-04-25T06:20:09.275Z,11.60
2019-04-25T06:23:08.735Z,11.60
2019-04-25T06:25:39.883Z,11.70
2019-04-25T06:28:13.714Z,11.70
2019-04-25T06:30:44.347Z,11.70
2019-04-25T06:33:16.743Z,11.80
2019-04-25T06:35:47.210Z,11.80
2019-04-25T06:38:17.608Z,11.80
2019-04-25T06:40:48.058Z,11.80
2019-04-25T06:43:19.876Z,11.80
2019-04-25T06:46:10.740Z,11.80
2019-04-25T06:48:45.569Z,11.90
2019-04-25T06:51:18.764Z,11.90
2019-04-25T06:53:49.214Z,11.80
2019-04-25T06:56:24.821Z,11.90
2019-04-25T06:58:55.041Z,11.90
2019-04-25T07:01:27.433Z,11.90
2019-04-25T07:03:59.220Z,12.00
2019-04-25T07:06:29.498Z,12.00
2019-04-25T07:08:59.716Z,12.00
2019-04-25T07:11:30.492Z,12.10
2019-04-25T07:14:00.990Z,12.30
2019-04-25T07:16:33.766Z,12.40
2019-04-25T07:19:05.713Z,12.50
2019-04-25T07:21:36.189Z,12.50
2019-04-25T07:24:06.695Z,12.50
2019-04-25T07:26:51.863Z,12.50
2019-04-25T07:29:39.920Z,12.50
2019-04-25T07:32:42.016Z,12.60
2019-04-25T07:35:13.523Z,12.60
2019-04-25T07:37:44.186Z,12.50
2019-04-25T07:40:15.113Z,12.50
2019-04-25T07:42:45.522Z,12.60
2019-04-25T07:45:18.947Z,12.60
2019-04-25T07:47:50.813Z,12.60
2019-04-25T07:50:21.351Z,12.50
2019-04-25T07:52:53.831Z,12.50
2019-04-25T07:55:24.244Z,12.50
2019-04-25T07:57:56.986Z,12.50
2019-04-25T08:00:27.698Z,12.50
2019-04-25T08:03:01.112Z,12.40
2019-04-25T08:05:31.545Z,12.40
2019-04-25T08:08:03.513Z,12.40
2019-04-25T08:10:57.072Z,12.40
2019-04-25T08:13:30.123Z,12.30
2019-04-25T08:16:03.352Z,12.30
2019-04-25T08:18:36.064Z,12.20
2019-04-25T08:21:07.216Z,12.30
2019-04-25T08:23:38.854Z,12.30
2019-04-25T08:26:11.671Z,12.30
2019-04-25T08:28:51.951Z,12.30
2019-04-25T08:31:14.823Z,12.40
2019-04-25T08:33:47.831Z,12.40
2019-04-25T08:36:21.104Z,12.50
2019-04-25T08:38:55.981Z,12.60
2019-04-25T08:41:28.367Z,12.70
2019-04-25T08:43:58.537Z,12.70
2019-04-25T08:46:28.718Z,12.80
2019-04-25T08:49:14.583Z,12.90
2019-04-25T08:51:45.023Z,13.00
2019-04-25T08:54:47.394Z,13.00
2019-04-25T08:57:41.092Z,13.10
2019-04-25T09:00:38.284Z,13.30
2019-04-25T09:03:14.367Z,13.50
2019-04-25T09:05:46.748Z,13.70
2019-04-25T09:08:17.254Z,13.80
2019-04-25T09:11:25.261Z,14.00
2019-04-25T09:13:55.625Z,14.10
2019-04-25T09:16:27.944Z,14.20
2019-04-25T09:18:58.388Z,14.50
2019-04-25T09:21:28.778Z,14.60
2019-04-25T09:23:59.428Z,14.60
2019-04-25T09:26:29.784Z,14.70
2019-04-25T09:29:00.545Z,15.00
2019-04-25T09:31:30.948Z,15.10
2019-04-25T09:34:01.214Z,15.20
2019-04-25T09:36:33.630Z,15.30
2019-04-25T09:39:14.018Z,15.10
2019-04-25T09:41:45.148Z,15.20
2019-04-25T09:44:22.095Z,15.40
2019-04-25T09:46:53.672Z,15.30
2019-04-25T09:49:35.158Z,15.10
2019-04-25T09:52:13.286Z,15.00
2019-04-25T09:55:06.926Z,15.00
2019-04-25T09:58:05.553Z,14.90
2019-04-25T10:00:40.729Z,14.90
2019-04-25T10:03:13.536Z,15.00
2019-04-25T10:05:42.888Z,15.10
2019-04-25T10:08:14.249Z,15.10
2019-04-25T10:10:44.697Z,15.10
2019-04-25T10:13:15.153Z,15.10
2019-04-25T10:15:56.811Z,15.20
2019-04-25T10:18:28.887Z,15.30
2019-04-25T10:20:59.322Z,15.70
2019-04-25T10:23:29.679Z,16.10
2019-04-25T10:26:05.254Z,15.80
2019-04-25T10:28:39.563Z,15.80
2019-04-25T10:31:13.872Z,16.00
2019-04-25T10:33:48.649Z,16.10
2019-04-25T10:36:18.801Z,16.40
2019-04-25T10:39:03.302Z,16.70
2019-04-25T10:41:21.110Z,16.90
2019-04-25T10:43:52.507Z,17.20
2019-04-25T10:46:24.421Z,17.20
2019-04-25T10:48:56.137Z,16.80
2019-04-25T10:51:30.073Z,16.90
2019-04-25T10:54:00.434Z,16.90
2019-04-25T10:56:30.952Z,16.70
2019-04-25T10:59:01.212Z,16.60
2019-04-25T11:01:31.532Z,16.90
2019-04-25T11:04:09.674Z,17.30
2019-04-25T11:06:40.837Z,17.60
2019-04-25T11:09:20.121Z,17.80
2019-04-25T11:11:51.064Z,17.50
2019-04-25T11:14:21.636Z,17.50
2019-04-25T11:16:53.503Z,17.70
2019-04-25T11:19:24.023Z,17.90
2019-04-25T11:21:54.281Z,17.90
2019-04-25T11:24:24.534Z,17.70
2019-04-25T11:26:55.388Z,17.80
2019-04-25T11:29:34.217Z,17.70
2019-04-25T11:32:05.900Z,17.50
2019-04-25T11:34:36.492Z,17.10
2019-04-25T11:37:10.765Z,17.00
2019-04-25T11:39:57.649Z,17.20
2019-04-25T11:42:30.762Z,17.50
2019-04-25T11:45:01.061Z,17.90
2019-04-25T11:47:33.374Z,18.20
2019-04-25T11:50:08.477Z,18.40
2019-04-25T11:52:38.857Z,18.30
2019-04-25T11:55:09.478Z,18.10
2019-04-25T11:57:39.833Z,18.40
2019-04-25T12:00:21.587Z,18.70
2019-04-25T12:02:43.945Z,18.80
2019-04-25T12:05:16.435Z,18.40
2019-04-25T12:07:46.738Z,18.40
2019-04-25T12:10:17.330Z,18.80
2019-04-25T12:12:47.490Z,19.00
2019-04-25T12:15:18.780Z,18.80
2019-04-25T12:17:49.536Z,18.90
2019-04-25T12:20:20.024Z,18.90
2019-04-25T12:22:51.650Z,18.60
2019-04-25T12:25:23.695Z,18.40
2019-04-25T12:27:54.769Z,18.50
2019-04-25T12:30:37.132Z,18.90
2019-04-25T12:32:57.127Z,19.80
2019-04-25T12:35:27.320Z,19.90
2019-04-25T12:37:59.961Z,19.50
2019-04-25T12:40:30.158Z,19.40
2019-04-25T12:43:03.118Z,19.30
2019-04-25T12:45:43.386Z,19.00
2019-04-25T12:48:14.727Z,19.10
2019-04-25T12:50:46.237Z,18.80
2019-04-25T12:53:17.498Z,18.90
2019-04-25T12:55:48.817Z,18.70
2019-04-25T12:58:19.235Z,18.60
2019-04-25T13:00:54.217Z,18.60
2019-04-25T13:03:21.406Z,18.90
2019-04-25T13:05:52.600Z,19.20
2019-04-25T13:08:24.387Z,19.30
2019-04-25T13:11:07.236Z,18.90
2019-04-25T13:13:26.763Z,18.60
2019-04-25T13:15:57.378Z,18.40
2019-04-25T13:18:27.571Z,18.20
2019-04-25T13:20:58.462Z,18.00
2019-04-25T13:23:28.717Z,18.00
2019-04-25T13:25:59.369Z,18.00
2019-04-25T13:28:44.144Z,17.90
2019-04-25T13:31:33.251Z,17.70
2019-04-25T13:34:09.843Z,17.60
2019-04-25T13:36:40.087Z,17.50
2019-04-25T13:39:17.151Z,17.70
2019-04-25T13:41:48.735Z,17.90
2019-04-25T13:44:19.931Z,18.00
2019-04-25T13:46:50.214Z,18.20
2019-04-25T13:49:20.492Z,18.30
2019-04-25T13:51:52.436Z,18.40
2019-04-25T13:54:24.053Z,18.40
2019-04-25T13:56:54.782Z,18.40
2019-04-25T13:59:25.629Z,18.40
2019-04-25T14:01:57.796Z,18.30
2019-04-25T14:04:29.706Z,18.00
2019-04-25T14:06:59.947Z,17.90
2019-04-25T14:09:30.981Z,17.90
2019-04-25T14:12:01.240Z,17.70
2019-04-25T14:14:34.303Z,17.60
2019-04-25T14:17:24.775Z,17.50
2019-04-25T14:20:04.188Z,17.40
2019-04-25T14:22:34.710Z,17.30
2019-04-25T14:25:06.217Z,17.40
2019-04-25T14:27:36.484Z,17.50
2019-04-25T14:30:09.314Z,17.50
2019-04-25T14:32:39.601Z,17.50
2019-04-25T14:35:10.043Z,17.40
2019-04-25T14:37:40.381Z,17.20
2019-04-25T14:40:13.886Z,16.90
2019-04-25T14:42:44.168Z,16.70
2019-04-25T14:45:15.038Z,16.40
2019-04-25T14:47:45.242Z,16.20
2019-04-25T14:50:15.694Z,15.50
2019-04-25T14:52:46.023Z,14.90
2019-04-25T14:55:47.618Z,14.50
2019-04-25T14:58:18.507Z,14.40
2019-04-25T15:01:04.183Z,14.30
2019-04-25T15:08:09.351Z,14.30
2019-04-25T15:10:37.321Z,14.10
2019-04-25T15:13:37.235Z,13.80
2019-04-25T15:16:27.601Z,13.60
2019-04-25T15:18:56.426Z,13.50
2019-04-25T15:21:27.586Z,13.30
2019-04-25T15:24:00.482Z,13.20
2019-04-25T15:26:31.178Z,13.10
2019-04-25T15:29:03.210Z,13.20
2019-04-25T15:31:34.749Z,13.10
2019-04-25T15:34:04.931Z,13.20
2019-04-25T15:37:00.485Z,13.10
2019-04-25T15:39:58.813Z,13.10
2019-04-25T15:42:49.011Z,13.10
2019-04-25T15:45:39.789Z,13.20
2019-04-25T15:48:12.486Z,13.30
2019-04-25T15:50:46.242Z,13.30
2019-04-25T15:53:18.307Z,13.30
2019-04-25T15:55:50.030Z,13.40
2019-04-25T15:58:26.379Z,13.50
2019-04-25T16:01:08.492Z,13.60
2019-04-25T16:03:38.951Z,13.60
2019-04-25T16:06:12.293Z,13.70
2019-04-25T16:08:42.601Z,13.80
2019-04-25T16:11:12.858Z,13.80
2019-04-25T16:13:43.007Z,13.90
2019-04-25T16:16:13.478Z,13.80
2019-04-25T16:18:43.873Z,13.90
2019-04-25T16:21:16.542Z,13.90
2019-04-25T16:23:48.476Z,14.00
2019-04-25T16:26:18.612Z,14.10
2019-04-25T16:28:48.804Z,14.10
2019-04-25T16:31:21.645Z,14.00
2019-04-25T16:33:53.417Z,14.00
2019-04-25T16:36:23.808Z,14.10
2019-04-25T16:38:54.482Z,14.10
2019-04-25T16:41:24.699Z,14.20
2019-04-25T16:43:59.211Z,14.60
2019-04-25T16:46:32.105Z,15.10
2019-04-25T16:49:02.419Z,15.10
2019-04-25T16:51:32.855Z,14.80
2019-04-25T16:54:03.261Z,14.50
2019-04-25T16:56:34.551Z,14.30
2019-04-25T16:59:05.716Z,14.30
2019-04-25T17:01:38.679Z,14.30
2019-04-25T17:04:09.880Z,14.20
2019-04-25T17:06:41.047Z,14.20
2019-04-25T17:09:14.149Z,14.10
2019-04-25T17:11:44.597Z,14.20
2019-04-25T17:14:44.137Z,14.20
2019-04-25T17:17:47.236Z,14.20
2019-04-25T17:20:39.785Z,14.30
2019-04-25T17:23:10.557Z,14.20
2019-04-25T17:25:42.556Z,14.20
2019-04-25T17:28:13.192Z,14.10
2019-04-25T17:30:46.091Z,14.10
2019-04-25T17:33:26.247Z,14.10
2019-04-25T17:36:07.993Z,14.10
2019-04-25T17:39:02.358Z,14.00
2019-04-25T17:41:34.371Z,13.90
2019-04-25T17:44:05.077Z,13.80
2019-04-25T17:46:36.121Z,13.90
2019-04-25T17:49:06.430Z,13.80
2019-04-25T17:51:36.711Z,13.80
2019-04-25T17:54:08.176Z,13.70
2019-04-25T17:56:38.603Z,13.60
2019-04-25T17:59:08.996Z,13.60
2019-04-25T18:01:40.069Z,13.50
2019-04-25T18:04:10.520Z,13.50
2019-04-25T18:06:44.408Z,13.50
2019-04-25T18:09:15.123Z,13.50
2019-04-25T18:12:03.799Z,13.50
2019-04-25T18:14:35.161Z,13.40
2019-04-25T18:17:05.550Z,13.50
2019-04-25T18:19:54.862Z,13.50
2019-04-25T18:22:52.965Z,13.40
2019-04-25T18:25:41.182Z,13.40
2019-04-25T18:28:25.839Z,13.40
2019-04-25T18:30:56.211Z,13.40
2019-04-25T18:33:31.395Z,13.40
2019-04-25T18:36:06.968Z,13.50
2019-04-25T18:38:49.575Z,13.40
2019-04-25T18:41:29.802Z,13.40
2019-04-25T18:44:04.010Z,13.50
2019-04-25T18:46:38.333Z,13.40
2019-04-25T18:49:09.295Z,13.40
2019-04-25T18:51:40.636Z,13.40
2019-04-25T18:54:31.830Z,13.40
2019-04-25T18:57:37.521Z,13.40
2019-04-25T19:00:31.693Z,13.30
2019-04-25T19:03:26.601Z,13.30
2019-04-25T19:06:06.067Z,13.30
2019-04-25T19:08:38.555Z,13.30
2019-04-25T19:11:13.167Z,13.20
2019-04-25T19:14:12.133Z,13.10
2019-04-25T19:16:43.028Z,13.10
2019-04-25T19:19:20.863Z,13.10
2019-04-25T19:21:53.170Z,13.10
2019-04-25T19:24:25.241Z,13.10
2019-04-25T19:26:58.375Z,13.10
2019-04-25T19:29:31.808Z,13.10
2019-04-25T19:32:02.116Z,13.00
2019-04-25T19:34:33.700Z,13.00
2019-04-25T19:37:06.001Z,12.90
2019-04-25T19:39:42.804Z,12.90
2019-04-25T19:42:31.214Z,12.90
2019-04-25T19:45:01.597Z,12.90
2019-04-25T19:47:32.408Z,12.80
2019-04-25T19:50:02.785Z,12.90
2019-04-25T19:52:33.190Z,12.80
2019-04-25T19:55:03.521Z,12.80
2019-04-25T19:57:34.125Z,12.80
2019-04-25T20:00:06.113Z,12.70
2019-04-25T20:02:44.645Z,12.70
2019-04-25T20:05:24.979Z,12.70
2019-04-25T20:08:16.848Z,12.70
2019-04-25T20:10:58.143Z,12.60
2019-04-25T20:13:28.552Z,12.60
2019-04-25T20:15:58.936Z,12.50
2019-04-25T20:18:29.808Z,12.50
2019-04-25T20:21:00.045Z,12.50
2019-04-25T20:23:30.380Z,12.50
2019-04-25T20:26:00.545Z,12.50
2019-04-25T20:28:32.731Z,12.50
2019-04-25T20:31:05.986Z,12.50
2019-04-25T20:33:37.597Z,12.60
2019-04-25T20:36:17.229Z,12.50
2019-04-25T20:38:39.747Z,12.60
2019-04-25T20:41:10.413Z,12.40
2019-04-25T20:43:40.784Z,12.40
2019-04-25T20:46:13.916Z,12.30
2019-04-25T20:48:44.160Z,12.20
2019-04-25T20:51:14.460Z,12.20
2019-04-25T20:53:44.688Z,12.30
2019-04-25T20:56:14.944Z,12.30
2019-04-25T20:58:47.698Z,12.20
2019-04-25T21:01:18.122Z,12.30
2019-04-25T21:03:49.910Z,12.30
2019-04-25T21:06:30.817Z,12.20
2019-04-25T21:09:02.184Z,12.10
2019-04-25T21:11:34.077Z,12.00
2019-04-25T21:14:35.399Z,12.00
2019-04-25T21:17:11.997Z,11.90
2019-04-25T21:19:44.194Z,12.00
2019-04-25T21:22:14.392Z,11.90
2019-04-25T21:24:44.760Z,11.80
2019-04-25T21:27:14.984Z,11.80
2019-04-25T21:29:45.152Z,11.80
2019-04-25T21:32:16.787Z,11.90
2019-04-25T21:34:46.968Z,11.90
2019-04-25T21:37:18.281Z,11.80
2019-04-25T21:40:11.291Z,11.80
2019-04-25T21:42:46.710Z,11.70
2019-04-25T21:45:17.245Z,11.70
2019-04-25T21:47:49.277Z,11.70
2019-04-25T21:50:19.695Z,11.60
2019-04-25T21:52:50.255Z,11.70
2019-04-25T21:55:21.765Z,11.70
2019-04-25T21:57:52.361Z,11.60
2019-04-25T22:00:46.321Z,11.60
2019-04-25T22:03:22.202Z,11.50
2019-04-25T22:05:52.755Z,11.50
2019-04-25T22:08:23.307Z,11.50
2019-04-25T22:10:53.663Z,11.50
2019-04-25T22:13:23.858Z,11.50
2019-04-25T22:15:55.078Z,11.50
2019-04-25T22:18:26.895Z,11.50
2019-04-25T22:20:58.191Z,11.50
2019-04-25T22:23:29.917Z,11.40
2019-04-25T22:26:01.075Z,11.40
2019-04-25T22:28:31.563Z,11.40
2019-04-25T22:31:05.456Z,11.40
2019-04-25T22:33:51.743Z,11.30
2019-04-25T22:36:23.272Z,11.30
2019-04-25T22:39:12.366Z,11.40
2019-04-25T22:41:47.015Z,11.30
2019-04-25T22:44:18.826Z,11.40
2019-04-25T22:46:49.457Z,11.40
2019-04-25T22:49:19.683Z,11.40
2019-04-25T22:51:49.887Z,11.40
2019-04-25T22:54:20.801Z,11.30
2019-04-25T22:56:51.081Z,11.40
2019-04-25T22:59:21.378Z,11.40
2019-04-25T23:02:09.621Z,11.30
2019-04-25T23:05:04.697Z,11.30
2019-04-25T23:07:26.025Z,11.30
2019-04-25T23:09:56.514Z,11.30
2019-04-25T23:12:27.043Z,11.30
2019-04-25T23:14:57.477Z,11.30
2019-04-25T23:17:29.551Z,11.20
2019-04-25T23:20:07.763Z,11.30
2019-04-25T23:22:44.129Z,11.10
2019-04-25T23:25:21.954Z,11.20
2019-04-25T23:28:20.234Z,11.10
2019-04-25T23:31:01.801Z,11.10
2019-04-25T23:33:38.737Z,11.10
2019-04-25T23:36:11.180Z,11.00
2019-04-25T23:38:45.663Z,11.10
2019-04-25T23:41:21.191Z,11.00
2019-04-25T23:43:53.399Z,11.00
2019-04-25T23:46:24.413Z,10.90
2019-04-25T23:49:00.580Z,10.90
2019-04-25T23:51:43.828Z,10.90
2019-04-25T23:54:17.274Z,10.90
2019-04-25T23:56:52.811Z,11.00
2019-04-25T23:59:29.560Z,11.00
